Strona główna
METAR-TAF:

METAR-TAF

Lotnisko :

Schwäbisch Hall, Niemcy

Szerokość geograficzna: 49-07-06N, Długość geograficzna: 9-47-02E, wysokość: 398 m

Aktualna obserwacja pogody

Raport powstał 25 minut temu, godzina 13:20 UTC
Wiatr 11 kt od północno-północny wschód, zmienny między północ i wschodnio-północny wschód
Temperatura 5°C
Wilgotność 30%
Ciśnienie 1024 hPa
Widzialność 10 km lub więcej
Brak chmur poniżej 1500 m i brak chmur cumulonimbus

METAR: EDTY 301320Z 02011KT 350V060 CAVOK 05/M11 Q1024

czas: 15:45 (13:45 UTC)

Prognoza

Raport powstał 2 godziny i 45 minut temu, godzina 11:00 UTC
Prognoza ważna od 30 godzina 12 UTC do 30 godzina 21 UTC
Wiatr 8 kt od północny wschód
Widzialność 10 km lub więcej
Brak chmur poniżej 1500 m i brak chmur cumulonimbus
Stopniowe zmiany
od 30 godzina 18 UTC do 30 godzina 20 UTC
Wiatr 3 kt od północno-północny wschód

TAF: EDTY 301100Z 3012/3021 05008KT CAVOK BECMG 3018/3020 02003KT

Obserwacja i prognoza pogody dla ponad 4000 lotnisk (raport METAR i TAF).

Dostępne stacje oznaczono żółtymi i czerwonymi punktami na mapie.

Najedź kursorem aby zobaczyć nazwę stacji.

Kliknij aby zobaczyć obserwacje i prognozy pogody.

Aby zmienić mapę: kliknij na zielony przycisk z czarnym krzyżykiem, aby powiększyć; na zielony przycisk z myślnikiem, aby pomniejszyć; na zielone strzałki, aby przejść do map sąsiednich.


METAR-TAF: